Time;durP1;ratioP1;P1;durP2;ratioP2;P2;SDS_P1;SDS_P2;PMS_P1;PMS_P2;Temp;Humidity;BMP_temperature;BMP_pressure;BME280_temperature;BME280_humidity;BME280_pressure;Samples;Min_cycle;Max_cycle;Signal;HPM_P1;HPM_P2
2022/05/18 00:01:39;;;;;;;5.90;0.88;;;16.00;85.60;;;;;;5075971;28;20051;-94
2022/05/18 00:04:05;;;;;;;3.90;1.05;;;16.00;86.60;;;;;;5089678;28;20017;-88
2022/05/18 00:06:31;;;;;;;3.63;1.17;;;16.00;86.70;;;;;;5094521;28;20013;-88
2022/05/18 00:08:57;;;;;;;6.32;0.90;;;16.00;81.80;;;;;;5066645;28;20020;-87
2022/05/18 00:11:23;;;;;;;2.83;0.90;;;15.90;79.20;;;;;;5058147;28;20055;-88
2022/05/18 00:13:51;;;;;;;8.50;1.00;;;15.90;80.50;;;;;;5058549;28;20517;-89
2022/05/18 00:16:20;;;;;;;3.25;0.85;;;15.90;80.30;;;;;;5075102;28;20020;-88
2022/05/18 00:18:45;;;;;;;5.22;1.00;;;15.80;82.20;;;;;;5075107;28;20042;-87
2022/05/18 00:21:12;;;;;;;;;;;15.80;85.40;;;;;;5058761;28;20036;-88
2022/05/18 00:23:38;;;;;;;7.93;0.88;;;15.80;87.10;;;;;;5055954;28;19951;-88
2022/05/18 00:26:04;;;;;;;;;;;15.70;87.30;;;;;;5074613;28;20036;-90
2022/05/18 00:28:30;;;;;;;3.00;0.70;;;15.60;88.20;;;;;;5074972;28;19950;-89
2022/05/18 00:30:57;;;;;;;4.03;1.27;;;15.50;88.90;;;;;;5058303;28;20024;-87
2022/05/18 00:33:23;;;;;;;4.93;1.08;;;15.40;90.10;;;;;;5058306;28;20138;-88
2022/05/18 00:35:49;;;;;;;;;;;15.30;90.70;;;;;;5058613;28;20135;-89
2022/05/18 00:38:15;;;;;;;3.70;1.00;;;15.20;93.00;;;;;;5054976;28;20366;-88
2022/05/18 00:40:43;;;;;;;;;;;15.10;93.60;;;;;;5073398;28;20540;-88
2022/05/18 00:43:19;;;;;;;6.07;1.02;;;15.00;95.10;;;;;;5074785;28;19905;-88
2022/05/18 00:45:46;;;;;;;5.47;0.88;;;14.80;96.00;;;;;;5057801;28;20063;-89
2022/05/18 00:48:12;;;;;;;1.17;0.60;;;14.70;96.90;;;;;;5073380;28;20520;-88
2022/05/18 00:50:41;;;;;;;2.35;1.00;;;14.60;97.90;;;;;;5074545;28;20048;-89
2022/05/18 00:53:20;;;;;;;2.78;0.70;;;14.50;98.70;;;;;;5054573;28;20532;-88
2022/05/18 00:55:52;;;;;;;8.70;0.88;;;14.40;99.20;;;;;;5074461;28;20029;-88
2022/05/18 00:58:31;;;;;;;6.30;0.93;;;14.30;99.50;;;;;;5074234;28;20056;-88
2022/05/18 01:00:57;;;;;;;6.63;1.05;;;14.30;99.90;;;;;;5057395;28;20039;-87
2022/05/18 01:03:27;;;;;;;2.97;0.70;;;14.20;99.90;;;;;;5057305;28;20020;-91
2022/05/18 01:05:59;;;;;;;4.15;1.77;;;14.20;99.90;;;;;;5058094;28;20032;-93
2022/05/18 01:08:51;;;;;;;8.10;1.67;;;14.00;99.90;;;;;;5074515;28;20032;-92
2022/05/18 01:11:17;;;;;;;4.68;1.13;;;13.90;99.90;;;;;;5074199;28;20508;-92
2022/05/18 01:13:44;;;;;;;3.85;1.10;;;13.90;99.90;;;;;;5074298;28;20064;-93
2022/05/18 01:16:09;;;;;;;6.95;1.10;;;13.90;99.90;;;;;;5054312;28;20482;-92
2022/05/18 01:18:35;;;;;;;;;;;13.90;99.90;;;;;;5057625;28;20240;-90
2022/05/18 01:21:01;;;;;;;13.55;1.25;;;13.90;99.50;;;;;;5071412;28;19908;-91
2022/05/18 01:23:59;;;;;;;3.03;0.80;;;13.80;99.90;;;;;;5072769;28;20480;-91
2022/05/18 01:26:44;;;;;;;3.17;1.00;;;13.80;99.60;;;;;;5060533;28;20044;-90
2022/05/18 01:29:11;;;;;;;3.50;1.20;;;13.70;99.60;;;;;;5056825;28;20119;-89
2022/05/18 01:31:56;;;;;;;5.57;0.93;;;13.70;97.00;;;;;;5058301;28;20047;-94
2022/05/18 01:34:26;;;;;;;7.00;0.82;;;13.80;96.30;;;;;;5078405;28;20191;-94
2022/05/18 01:36:52;;;;;;;5.35;1.10;;;13.80;95.90;;;;;;5074573;28;20024;-94
2022/05/18 01:39:31;;;;;;;2.42;0.70;;;13.80;94.60;;;;;;5073978;28;20025;-93
2022/05/18 01:42:06;;;;;;;3.30;0.90;;;13.90;94.70;;;;;;5074237;28;20025;-93
2022/05/18 01:44:38;;;;;;;6.35;0.90;;;13.80;95.10;;;;;;5073556;28;20024;-92
2022/05/18 01:47:04;;;;;;;3.95;1.48;;;13.80;96.00;;;;;;5074254;28;20108;-93
2022/05/18 01:49:30;;;;;;;;;;;13.70;95.80;;;;;;5073864;28;20052;-92
2022/05/18 01:51:57;;;;;;;11.05;0.85;;;13.70;96.90;;;;;;5054181;28;19966;-94
2022/05/18 01:54:23;;;;;;;5.78;1.52;;;13.70;96.90;;;;;;5053074;28;20027;-93
2022/05/18 01:56:49;;;;;;;;;;;13.80;94.10;;;;;;5056294;28;20431;-93
2022/05/18 01:59:15;;;;;;;5.53;0.75;;;13.80;94.30;;;;;;5073720;28;19910;-94
2022/05/18 02:01:41;;;;;;;3.50;0.90;;;13.80;96.10;;;;;;5073398;28;20111;-87
2022/05/18 02:04:07;;;;;;;4.22;1.15;;;13.70;97.20;;;;;;5072626;28;20059;-85
2022/05/18 02:06:33;;;;;;;;;;;13.60;97.80;;;;;;5072502;28;20078;-85
2022/05/18 02:09:00;;;;;;;2.78;0.70;;;13.40;98.30;;;;;;5073374;28;19957;-85
2022/05/18 02:11:25;;;;;;;3.67;1.00;;;13.40;97.30;;;;;;5072333;28;20473;-85
2022/05/18 02:13:51;;;;;;;;;;;13.30;98.90;;;;;;5073503;28;20043;-86
2022/05/18 02:16:18;;;;;;;6.43;1.23;;;13.20;99.90;;;;;;5072209;28;19905;-85
2022/05/18 02:18:44;;;;;;;1.95;0.95;;;13.10;99.90;;;;;;5072070;28;20055;-86
2022/05/18 02:21:10;;;;;;;;;;;12.90;99.90;;;;;;5072720;28;20639;-85
2022/05/18 02:23:40;;;;;;;8.23;1.97;;;12.80;99.90;;;;;;5071771;28;19908;-86
2022/05/18 02:26:15;;;;;;;6.07;2.20;;;12.80;99.90;;;;;;5071981;28;21131;-85
2022/05/18 02:28:43;;;;;;;5.13;1.27;;;12.70;99.90;;;;;;5073058;28;20108;-85
2022/05/18 02:31:09;;;;;;;3.53;1.02;;;12.60;99.90;;;;;;5072086;28;20035;-85
2022/05/18 02:33:34;;;;;;;;;;;12.60;99.90;;;;;;5072140;28;20032;-86
2022/05/18 02:36:00;;;;;;;3.45;0.95;;;12.50;99.90;;;;;;5071687;28;19927;-86
2022/05/18 02:38:26;;;;;;;;;;;12.50;99.90;;;;;;5072318;28;20222;-85
2022/05/18 02:40:51;;;;;;;2.10;0.60;;;12.60;99.90;;;;;;5071646;28;20513;-85
2022/05/18 02:43:17;;;;;;;;;;;12.60;99.90;;;;;;5072541;28;20055;-87
2022/05/18 02:45:43;;;;;;;3.03;1.10;;;12.60;99.90;;;;;;5071994;28;19905;-90
2022/05/18 02:48:09;;;;;;;;;;;12.60;99.90;;;;;;5073020;28;20036;-88
2022/05/18 02:50:35;;;;;;;3.25;0.95;;;12.60;99.90;;;;;;5073268;28;19909;-91
2022/05/18 02:53:01;;;;;;;;;;;12.50;99.90;;;;;;5073259;28;20146;-91
2022/05/18 02:58:11;;;;;;;7.53;1.20;;;12.30;99.90;;;;;;5073358;28;20103;-87
2022/05/18 03:00:37;;;;;;;;;;;12.30;99.90;;;;;;5074244;28;20028;-88
2022/05/18 03:03:03;;;;;;;4.95;1.48;;;12.30;99.90;;;;;;5072053;28;19998;-89
2022/05/18 03:05:29;;;;;;;;;;;12.20;99.90;;;;;;5073088;28;20056;-91
2022/05/18 03:07:55;;;;;;;3.17;0.98;;;12.30;99.90;;;;;;5072380;28;19908;-92
2022/05/18 03:10:20;;;;;;;;;;;12.20;99.90;;;;;;5071399;28;20033;-93
2022/05/18 03:12:46;;;;;;;4.05;1.20;;;12.20;99.90;;;;;;5083342;28;19943;-83
2022/05/18 03:15:12;;;;;;;;;;;12.20;99.90;;;;;;5071635;28;20031;-83
2022/05/18 03:17:38;;;;;;;6.22;0.93;;;12.30;99.20;;;;;;5069676;28;20082;-83
2022/05/18 03:20:04;;;;;;;;;;;12.30;97.30;;;;;;5071309;28;20635;-84
2022/05/18 03:25:14;;;;;;;7.18;1.17;;;12.30;96.30;;;;;;5070833;28;20042;-83
2022/05/18 03:27:43;;;;;;;;;;;12.30;96.00;;;;;;5070633;28;20905;-84
2022/05/18 03:30:11;;;;;;;9.32;1.35;;;12.20;95.40;;;;;;5069543;28;19904;-84
2022/05/18 03:32:37;;;;;;;7.55;0.77;;;12.30;93.90;;;;;;5070346;28;20036;-85
2022/05/18 03:35:02;;;;;;;;;;;12.20;93.70;;;;;;5072474;28;20435;-84
2022/05/18 03:37:28;;;;;;;6.95;0.93;;;12.30;91.90;;;;;;5070290;28;19983;-85
2022/05/18 03:39:54;;;;;;;;;;;12.40;89.00;;;;;;5067017;28;20029;-84
2022/05/18 03:42:19;;;;;;;3.05;0.80;;;12.40;87.60;;;;;;5066255;28;20252;-83
2022/05/18 03:44:45;;;;;;;;;;;12.40;85.90;;;;;;5068982;28;20025;-84
2022/05/18 03:47:11;;;;;;;5.15;0.75;;;12.30;85.10;;;;;;5068711;28;20003;-83
2022/05/18 03:49:36;;;;;;;;;;;12.40;82.10;;;;;;5069419;28;20124;-83
2022/05/18 03:52:03;;;;;;;9.13;0.80;;;12.40;79.10;;;;;;5069809;28;19924;-85
2022/05/18 03:54:29;;;;;;;10.30;0.80;;;12.40;77.90;;;;;;5052236;28;20024;-82
2022/05/18 03:56:54;;;;;;;;;;;12.50;74.90;;;;;;5069701;28;20511;-83
2022/05/18 03:59:20;;;;;;;10.00;0.63;;;12.50;75.70;;;;;;5067889;28;19926;-83
2022/05/18 04:01:46;;;;;;;;;;;12.50;75.20;;;;;;5069273;28;20032;-84
2022/05/18 04:04:11;;;;;;;3.63;0.60;;;12.60;73.10;;;;;;5071387;28;19908;-83
2022/05/18 04:06:37;;;;;;;;;;;12.60;71.50;;;;;;5068525;28;20032;-85
2022/05/18 04:09:03;;;;;;;3.50;0.50;;;12.70;69.40;;;;;;5068746;28;19909;-83
2022/05/18 04:11:28;;;;;;;;;;;12.70;69.60;;;;;;5071262;28;20056;-83
2022/05/18 04:13:55;;;;;;;5.10;0.50;;;12.90;66.00;;;;;;5069636;28;19904;-84
2022/05/18 04:16:21;;;;;;;5.53;1.15;;;13.00;63.80;;;;;;5069684;28;20028;-83
2022/05/18 04:18:46;;;;;;;;;;;13.10;64.40;;;;;;5069870;28;20028;-85
2022/05/18 04:21:12;;;;;;;2.13;0.50;;;13.30;63.00;;;;;;5070614;28;19911;-85
2022/05/18 04:23:38;;;;;;;;;;;13.50;61.10;;;;;;5074939;28;20106;-85
2022/05/18 04:26:04;;;;;;;9.77;0.77;;;13.50;62.80;;;;;;5073499;28;20360;-85
2022/05/18 04:28:32;;;;;;;;;;;13.50;60.30;;;;;;5074208;28;20111;-84
2022/05/18 04:30:58;;;;;;;10.27;0.68;;;13.60;58.50;;;;;;5074138;28;19912;-84
2022/05/18 04:33:24;;;;;;;4.13;0.70;;;13.70;59.90;;;;;;5074668;28;20040;-85
2022/05/18 04:35:50;;;;;;;;;;;13.80;58.40;;;;;;5074952;28;20495;-85
2022/05/18 04:38:17;;;;;;;9.60;0.70;;;13.80;56.90;;;;;;5073290;28;19912;-85
2022/05/18 04:40:43;;;;;;;6.10;0.73;;;13.80;56.60;;;;;;5074433;28;20021;-84
2022/05/18 04:43:09;;;;;;;;;;;13.90;56.00;;;;;;5074253;28;20085;-85
2022/05/18 04:45:34;;;;;;;4.05;0.80;;;14.00;56.00;;;;;;5072929;28;19918;-85
2022/05/18 04:48:00;;;;;;;;;;;14.20;56.30;;;;;;5073400;28;20016;-84
2022/05/18 04:50:25;;;;;;;5.25;0.55;;;14.20;54.00;;;;;;5072702;28;19912;-84
2022/05/18 04:52:51;;;;;;;;;;;14.20;52.30;;;;;;5054954;28;20040;-85
2022/05/18 04:55:17;;;;;;;5.47;0.50;;;14.40;51.10;;;;;;5056379;28;19908;-84
2022/05/18 04:57:43;;;;;;;8.07;0.50;;;14.40;50.70;;;;;;5071428;28;20443;-84
2022/05/18 05:00:10;;;;;;;;;;;14.60;51.50;;;;;;5055772;28;20016;-84
2022/05/18 05:02:37;;;;;;;7.40;0.55;;;14.60;49.00;;;;;;5055336;28;19999;-84
2022/05/18 05:05:06;;;;;;;3.45;0.68;;;14.70;47.20;;;;;;5055347;28;20443;-84
2022/05/18 05:07:32;;;;;;;4.25;1.17;;;14.70;46.90;;;;;;5072846;28;20021;-84
2022/05/18 05:09:57;;;;;;;;;;;14.80;45.70;;;;;;5072309;28;20425;-84
2022/05/18 05:12:25;;;;;;;5.65;0.43;;;14.90;44.60;;;;;;5071505;28;19916;-84
2022/05/18 05:14:51;;;;;;;5.13;0.50;;;15.00;44.10;;;;;;5054694;28;20019;-84
2022/05/18 05:17:16;;;;;;;;;;;15.20;44.50;;;;;;5072771;28;20041;-82
2022/05/18 05:19:42;;;;;;;11.25;0.60;;;15.60;41.90;;;;;;5054771;28;19904;-84
2022/05/18 05:22:08;;;;;;;2.42;0.82;;;15.70;42.30;;;;;;5071302;28;20572;-83
2022/05/18 05:24:33;;;;;;;2.70;0.60;;;16.00;41.30;;;;;;5053783;28;20036;-83
2022/05/18 05:26:59;;;;;;;;;;;16.40;41.50;;;;;;5055130;28;20377;-84
2022/05/18 05:29:24;;;;;;;4.78;0.73;;;16.70;38.10;;;;;;5071066;28;20293;-83
2022/05/18 05:31:50;;;;;;;;;;;16.50;37.80;;;;;;5054784;28;20036;-84
2022/05/18 05:34:16;;;;;;;4.53;0.70;;;16.10;37.00;;;;;;5069989;28;20388;-83
2022/05/18 05:36:42;;;;;;;10.32;0.77;;;15.60;38.60;;;;;;5053948;28;20519;-84
2022/05/18 05:39:07;;;;;;;;;;;15.70;39.00;;;;;;5072234;28;20082;-83
2022/05/18 05:41:33;;;;;;;17.05;0.82;;;15.90;38.40;;;;;;5054052;28;20373;-84
2022/05/18 05:43:58;;;;;;;;;;;15.80;37.80;;;;;;5070513;28;20021;-84
2022/05/18 05:46:27;;;;;;;7.55;0.93;;;15.80;38.20;;;;;;5070401;28;19904;-83
2022/05/18 05:48:54;;;;;;;12.50;0.82;;;16.00;38.00;;;;;;5053288;28;20040;-83
2022/05/18 05:51:23;;;;;;;10.25;0.50;;;16.60;36.40;;;;;;5053298;28;20036;-84
2022/05/18 05:53:50;;;;;;;13.07;0.95;;;17.10;36.30;;;;;;5053879;28;20450;-84
2022/05/18 05:56:17;;;;;;;11.65;0.77;;;17.60;35.10;;;;;;5070778;28;20064;-83
2022/05/18 05:58:43;;;;;;;5.47;0.75;;;18.20;34.60;;;;;;5070575;28;20489;-82
2022/05/18 06:01:12;;;;;;;5.85;0.75;;;18.60;33.10;;;;;;5071068;28;20021;-83
2022/05/18 06:03:38;;;;;;;2.50;0.52;;;19.30;31.50;;;;;;5052891;28;20028;-84
2022/05/18 06:06:05;;;;;;;5.20;0.70;;;19.50;31.20;;;;;;5053241;28;20115;-85
2022/05/18 06:08:32;;;;;;;5.32;0.57;;;19.90;30.60;;;;;;5071762;28;20147;-82
2022/05/18 06:10:59;;;;;;;7.97;0.82;;;20.50;29.60;;;;;;5053303;28;20046;-85
2022/05/18 06:13:26;;;;;;;4.45;0.85;;;20.70;29.50;;;;;;5069263;28;20040;-84
2022/05/18 06:15:52;;;;;;;9.55;0.80;;;21.30;29.00;;;;;;5052627;28;20032;-81
2022/05/18 06:18:18;;;;;;;4.63;0.88;;;22.00;27.50;;;;;;5075800;28;20032;-82
2022/05/18 06:20:47;;;;;;;7.43;0.68;;;22.10;27.10;;;;;;5079148;28;20444;-80
2022/05/18 06:23:14;;;;;;;6.60;0.90;;;22.50;26.40;;;;;;5074225;28;20092;-81
2022/05/18 06:25:40;;;;;;;9.43;1.33;;;22.40;25.70;;;;;;5052786;28;20031;-82
2022/05/18 06:28:07;;;;;;;2.90;0.65;;;22.10;26.00;;;;;;5069834;28;20064;-83
2022/05/18 06:30:33;;;;;;;2.50;0.93;;;22.10;25.50;;;;;;5052700;28;20108;-83
2022/05/18 06:32:58;;;;;;;3.92;0.80;;;21.90;25.40;;;;;;5044640;28;20136;-83
2022/05/18 06:35:24;;;;;;;11.90;0.98;;;22.20;25.10;;;;;;5050845;28;20025;-80
2022/05/18 06:37:50;;;;;;;11.73;0.50;;;22.30;25.10;;;;;;5057959;28;20048;-81
2022/05/18 06:40:17;;;;;;;5.10;0.70;;;22.70;24.60;;;;;;5071197;28;20098;-81
2022/05/18 06:42:43;;;;;;;9.52;0.80;;;22.10;24.40;;;;;;5076118;28;20109;-80
2022/05/18 06:45:11;;;;;;;8.25;1.02;;;22.00;24.70;;;;;;5071585;28;20537;-82
2022/05/18 06:47:37;;;;;;;9.70;0.98;;;21.60;25.50;;;;;;5058220;28;20404;-82
2022/05/18 06:50:05;;;;;;;10.93;0.70;;;22.00;25.10;;;;;;5078295;27;20040;-80
2022/05/18 06:52:31;;;;;;;3.15;0.70;;;22.10;25.30;;;;;;5057986;28;20048;-81
2022/05/18 06:54:57;;;;;;;5.72;0.70;;;22.40;24.50;;;;;;5050812;28;20060;-82
2022/05/18 06:57:23;;;;;;;15.68;0.90;;;22.60;24.00;;;;;;5056812;28;20483;-82
2022/05/18 06:59:48;;;;;;;16.92;0.93;;;22.50;23.60;;;;;;5076102;28;20036;-82
2022/05/18 07:02:14;;;;;;;8.30;1.17;;;22.40;23.80;;;;;;5066319;28;20084;-80
2022/05/18 07:04:40;;;;;;;2.10;0.57;;;22.50;23.60;;;;;;5082215;28;20528;-79
2022/05/18 07:07:06;;;;;;;10.18;1.35;;;22.30;24.50;;;;;;5074612;28;20041;-79
2022/05/18 07:09:32;;;;;;;5.63;0.50;;;21.70;24.60;;;;;;5051355;28;20441;-79
2022/05/18 07:11:57;;;;;;;6.43;0.70;;;21.80;23.90;;;;;;5052386;28;20037;-80
2022/05/18 07:14:26;;;;;;;6.95;0.60;;;21.60;25.00;;;;;;5051436;28;20492;-81
2022/05/18 07:16:53;;;;;;;3.28;0.60;;;21.90;24.70;;;;;;5050991;28;20040;-81
2022/05/18 07:19:19;;;;;;;5.43;0.93;;;22.00;24.50;;;;;;5068433;28;20036;-81
2022/05/18 07:21:47;;;;;;;10.35;0.85;;;22.10;24.80;;;;;;5050511;28;20047;-81
2022/05/18 07:24:14;;;;;;;3.38;0.50;;;22.50;23.90;;;;;;5051009;28;20421;-82
2022/05/18 07:26:41;;;;;;;3.67;0.93;;;22.60;23.40;;;;;;5067773;28;20378;-82
2022/05/18 07:29:07;;;;;;;9.35;1.08;;;22.50;23.70;;;;;;5050967;28;20035;-81
2022/05/18 07:32:08;;;;;;;4.30;0.80;;;22.70;23.60;;;;;;5051006;28;20029;-81
2022/05/18 07:34:21;;;;;;;1.95;0.60;;;22.70;24.30;;;;;;5068723;28;20087;-82
2022/05/18 07:36:47;;;;;;;2.33;0.50;;;22.70;23.40;;;;;;5051201;28;20025;-82
2022/05/18 07:39:13;;;;;;;8.00;0.80;;;23.10;24.00;;;;;;5051105;28;20060;-80
2022/05/18 07:41:38;;;;;;;8.55;0.60;;;23.20;23.20;;;;;;5067534;28;20522;-82
2022/05/18 07:44:05;;;;;;;1.77;0.50;;;23.30;22.70;;;;;;5068584;28;20037;-82
2022/05/18 07:46:30;;;;;;;2.72;0.57;;;22.90;22.80;;;;;;5067574;28;20087;-80
2022/05/18 07:48:56;;;;;;;5.78;0.80;;;23.30;22.30;;;;;;5067573;28;20037;-81
2022/05/18 07:51:22;;;;;;;8.27;0.80;;;23.20;23.20;;;;;;5068362;28;20048;-80
2022/05/18 07:53:47;;;;;;;2.63;0.60;;;23.20;22.80;;;;;;5068634;28;20039;-81
2022/05/18 07:56:14;;;;;;;7.07;0.80;;;23.20;23.00;;;;;;5068444;28;20050;-81
2022/05/18 07:58:39;;;;;;;4.78;0.73;;;23.40;23.10;;;;;;5070539;28;20421;-82
2022/05/18 08:01:07;;;;;;;3.20;0.60;;;23.40;22.30;;;;;;5072388;28;20020;-81
2022/05/18 08:03:33;;;;;;;7.32;1.40;;;23.40;22.90;;;;;;5071149;28;20028;-81
2022/05/18 08:05:59;;;;;;;3.67;0.70;;;23.40;22.80;;;;;;5054085;28;20028;-82
2022/05/18 08:08:25;;;;;;;3.45;0.82;;;23.50;22.20;;;;;;5070870;28;20111;-81
2022/05/18 08:16:19;;;;;;;2.63;0.90;;;23.30;22.40;;;;;;5076130;28;20039;-81
2022/05/18 08:18:46;;;;;;;8.65;0.93;;;23.20;22.90;;;;;;5069814;28;20052;-80
2022/05/18 08:21:12;;;;;;;6.88;0.70;;;23.50;22.80;;;;;;5068781;28;20729;-79
2022/05/18 08:23:38;;;;;;;5.65;0.90;;;23.60;22.40;;;;;;5058801;28;20094;-80
2022/05/18 08:26:04;;;;;;;8.40;0.68;;;23.80;20.80;;;;;;5076494;28;20115;-81
2022/05/18 08:28:31;;;;;;;5.60;0.60;;;23.80;21.00;;;;;;5073959;28;20123;-81
2022/05/18 08:30:58;;;;;;;10.00;0.70;;;23.50;21.50;;;;;;5049328;28;20036;-80
2022/05/18 08:33:24;;;;;;;2.00;0.65;;;23.80;22.10;;;;;;5069394;28;20037;-81
2022/05/18 08:35:50;;;;;;;7.97;0.80;;;23.90;21.70;;;;;;5048997;28;20037;-80
2022/05/18 08:38:17;;;;;;;9.32;0.77;;;23.60;22.50;;;;;;5050355;28;20040;-80
2022/05/18 08:41:01;;;;;;;9.45;1.08;;;23.60;23.20;;;;;;5073014;28;20089;-80
2022/05/18 08:43:31;;;;;;;6.13;0.77;;;23.70;22.10;;;;;;5072483;28;20044;-81
2022/05/18 08:46:03;;;;;;;3.78;0.60;;;23.60;22.50;;;;;;5046960;28;20036;-79
2022/05/18 08:48:28;;;;;;;4.18;0.68;;;23.80;22.70;;;;;;5073215;28;20082;-82
2022/05/18 08:51:02;;;;;;;3.72;0.90;;;24.00;22.20;;;;;;5082938;28;20120;-81
2022/05/18 08:53:38;;;;;;;3.05;0.57;;;24.30;22.50;;;;;;5082050;28;20055;-81
2022/05/18 08:56:25;;;;;;;4.28;0.68;;;24.30;23.00;;;;;;5076356;28;20036;-80
2022/05/18 08:58:53;;;;;;;2.67;0.68;;;24.30;20.50;;;;;;5069824;28;20039;-81
2022/05/18 09:01:34;;;;;;;4.35;0.63;;;24.30;21.70;;;;;;5058006;28;20033;-80
2022/05/18 09:04:15;;;;;;;4.78;0.95;;;24.60;21.00;;;;;;5071355;28;20037;-80
2022/05/18 09:06:52;;;;;;;1.42;0.50;;;24.70;19.90;;;;;;5055991;28;20409;-81
2022/05/18 09:12:29;;;;;;;5.43;0.60;;;24.10;20.40;;;;;;5074453;28;20634;-82
2022/05/18 09:14:56;;;;;;;8.40;0.85;;;23.90;20.30;;;;;;5071102;28;20028;-81
2022/05/18 09:17:37;;;;;;;3.85;0.60;;;24.20;19.40;;;;;;5069662;28;20620;-81
2022/05/18 09:20:20;;;;;;;0.77;0.40;;;24.10;19.80;;;;;;5057813;28;20037;-82
2022/05/18 09:23:01;;;;;;;1.70;0.43;;;24.30;20.40;;;;;;5066906;28;20044;-78
2022/05/18 09:26:01;;;;;;;2.22;0.50;;;24.90;19.60;;;;;;5054086;28;20054;-80
2022/05/18 09:28:53;;;;;;;7.70;0.70;;;25.20;19.00;;;;;;5068758;28;20036;-80
2022/05/18 09:31:44;;;;;;;5.88;4.30;;;25.60;19.70;;;;;;5065296;28;20047;-80
2022/05/18 09:34:29;;;;;;;2.03;0.70;;;25.50;17.70;;;;;;5065849;28;20390;-79
2022/05/18 09:37:22;;;;;;;3.25;0.73;;;25.30;17.50;;;;;;5071415;28;20552;-81
2022/05/18 09:40:13;;;;;;;2.35;0.70;;;25.10;19.20;;;;;;5068980;28;20044;-79
2022/05/18 09:43:10;;;;;;;3.80;0.60;;;25.10;18.40;;;;;;5073222;28;20481;-79
2022/05/18 09:45:39;;;;;;;2.85;0.70;;;25.30;18.60;;;;;;5084056;28;20043;-80
2022/05/18 09:48:43;;;;;;;4.63;0.50;;;25.00;18.30;;;;;;5057338;28;20039;-80
2022/05/18 09:51:10;;;;;;;10.02;0.40;;;24.90;18.60;;;;;;5033969;28;20358;-81
2022/05/18 09:53:38;;;;;;;4.10;0.50;;;24.70;18.20;;;;;;5050834;28;20053;-80
2022/05/18 09:56:17;;;;;;;5.28;0.75;;;24.50;19.10;;;;;;5070287;28;20124;-79
2022/05/18 09:58:46;;;;;;;1.10;0.60;;;24.60;19.80;;;;;;5065167;28;20084;-79
2022/05/18 10:09:46;;;;;;;5.70;0.40;;;23.00;20.90;;;;;;5057207;28;20051;-78
2022/05/18 10:12:16;;;;;;;4.63;0.55;;;22.60;21.40;;;;;;5043471;28;20033;-79
2022/05/18 10:14:45;;;;;;;1.23;0.40;;;22.00;20.10;;;;;;5054200;28;20037;-79
2022/05/18 10:17:13;;;;;;;2.92;0.47;;;21.70;22.00;;;;;;5065369;28;20049;-80
2022/05/18 10:19:45;;;;;;;2.05;0.45;;;21.30;21.20;;;;;;5052284;28;20040;-80
2022/05/18 10:22:16;;;;;;;5.13;0.40;;;21.00;21.90;;;;;;5067515;28;20036;-79
2022/05/18 10:24:52;;;;;;;3.20;0.40;;;20.80;22.70;;;;;;5070626;28;20031;-79
2022/05/18 10:27:24;;;;;;;1.83;0.45;;;20.90;23.30;;;;;;5051463;28;20101;-79
2022/05/18 10:30:09;;;;;;;4.13;0.50;;;20.90;23.40;;;;;;5083412;28;20048;-79
2022/05/18 10:32:37;;;;;;;2.85;0.60;;;21.00;22.60;;;;;;5068062;28;20052;-79
2022/05/18 10:35:04;;;;;;;6.20;1.10;;;21.00;22.80;;;;;;5071160;28;20036;-79
2022/05/18 10:37:31;;;;;;;1.58;0.50;;;20.90;24.00;;;;;;5074003;28;20039;-80
2022/05/18 10:40:12;;;;;;;1.75;0.50;;;20.70;23.70;;;;;;5072947;28;20059;-79
2022/05/18 10:42:48;;;;;;;4.32;1.15;;;20.60;22.20;;;;;;5067318;28;20126;-78
2022/05/18 10:45:26;;;;;;;2.20;0.43;;;20.60;22.80;;;;;;5071756;28;20044;-79
2022/05/18 10:48:03;;;;;;;4.07;0.50;;;20.50;22.00;;;;;;5077361;28;20744;-79
2022/05/18 10:50:32;;;;;;;0.70;0.28;;;20.20;23.30;;;;;;5048926;28;20048;-80
2022/05/18 10:53:25;;;;;;;1.85;0.30;;;20.10;23.00;;;;;;5058040;28;20131;-78
2022/05/18 10:55:56;;;;;;;0.90;0.35;;;20.10;23.30;;;;;;5044104;28;20075;-80
2022/05/18 10:58:29;;;;;;;3.53;0.38;;;20.00;24.10;;;;;;5075917;28;20131;-79
2022/05/18 11:01:16;;;;;;;1.80;0.60;;;20.00;23.90;;;;;;5051085;28;20051;-80
2022/05/18 11:03:42;;;;;;;2.75;0.65;;;20.00;23.30;;;;;;5077213;28;20036;-78
2022/05/18 11:06:13;;;;;;;2.78;0.60;;;19.90;23.10;;;;;;5070342;28;20032;-80
2022/05/18 11:08:39;;;;;;;2.40;0.40;;;20.00;23.70;;;;;;5068653;28;20501;-80
2022/05/18 11:11:30;;;;;;;1.38;0.50;;;20.10;23.30;;;;;;5050488;28;20036;-78
2022/05/18 11:14:22;;;;;;;2.70;0.40;;;20.20;23.40;;;;;;5050747;28;20041;-80
2022/05/18 11:16:54;;;;;;;5.25;0.30;;;20.40;23.40;;;;;;5068635;28;20031;-79
2022/05/18 11:19:43;;;;;;;3.88;0.50;;;20.30;22.40;;;;;;5068530;28;20024;-80
2022/05/18 11:22:38;;;;;;;2.88;0.40;;;20.20;23.40;;;;;;5050290;28;20040;-80
2022/05/18 11:25:25;;;;;;;3.17;0.40;;;20.10;23.50;;;;;;5050444;28;20035;-80
2022/05/18 11:28:14;;;;;;;1.38;0.47;;;20.20;24.00;;;;;;5068421;28;20421;-82
2022/05/18 11:31:03;;;;;;;2.50;0.50;;;20.20;24.90;;;;;;5068426;28;20735;-79
2022/05/18 11:33:37;;;;;;;4.55;0.60;;;20.10;25.10;;;;;;5070305;28;20036;-81
2022/05/18 11:36:09;;;;;;;4.45;0.40;;;20.20;24.50;;;;;;5071182;28;20024;-80
2022/05/18 11:38:43;;;;;;;1.27;0.40;;;20.20;24.20;;;;;;5071173;28;20040;-80
2022/05/18 11:41:30;;;;;;;0.98;0.30;;;20.30;24.90;;;;;;5071376;28;20082;-81
2022/05/18 11:44:17;;;;;;;3.00;0.70;;;20.20;25.00;;;;;;5054706;28;20043;-81
2022/05/18 11:46:55;;;;;;;10.63;0.50;;;20.30;25.10;;;;;;5070830;28;20029;-78
2022/05/18 11:49:41;;;;;;;2.08;0.40;;;20.60;23.80;;;;;;5054027;28;20393;-79
2022/05/18 11:52:07;;;;;;;4.03;0.40;;;20.70;23.60;;;;;;5071900;28;20059;-81
2022/05/18 11:54:41;;;;;;;5.20;0.47;;;20.50;23.40;;;;;;5072123;28;20397;-80
2022/05/18 11:57:07;;;;;;;0.90;0.30;;;20.50;23.20;;;;;;5072057;28;20094;-81
2022/05/18 12:00:07;;;;;;;1.48;0.30;;;20.40;23.50;;;;;;5071837;28;20451;-78
2022/05/18 12:02:35;;;;;;;4.57;0.52;;;20.40;23.90;;;;;;5022056;28;20083;-80
2022/05/18 12:05:26;;;;;;;4.78;0.50;;;20.40;24.50;;;;;;5070596;28;20024;-81
2022/05/18 12:08:37;;;;;;;5.00;0.65;;;20.70;23.90;;;;;;5053856;28;20020;-81
2022/05/18 12:11:30;;;;;;;2.95;0.50;;;20.50;24.40;;;;;;4993380;28;20037;-81
2022/05/18 12:14:19;;;;;;;5.80;0.60;;;20.70;24.30;;;;;;5001877;28;20053;-81
2022/05/18 12:17:12;;;;;;;1.15;0.50;;;20.70;24.20;;;;;;5045087;28;20037;-80
2022/05/18 12:20:05;;;;;;;6.28;0.40;;;20.70;22.80;;;;;;5053447;28;20032;-80
2022/05/18 12:22:42;;;;;;;2.53;0.40;;;20.60;23.50;;;;;;5053441;28;20024;-81
2022/05/18 12:25:09;;;;;;;7.43;0.45;;;20.50;23.70;;;;;;5071230;28;20028;-79
2022/05/18 12:27:36;;;;;;;3.85;0.38;;;20.50;23.50;;;;;;5070502;28;20051;-80
2022/05/18 12:30:06;;;;;;;1.77;0.40;;;20.50;24.10;;;;;;5072744;28;20029;-82
2022/05/18 12:32:33;;;;;;;3.05;0.40;;;20.70;23.80;;;;;;5071066;28;20032;-81
2022/05/18 12:35:24;;;;;;;8.18;0.68;;;20.90;23.20;;;;;;5072066;28;20520;-81
2022/05/18 12:37:58;;;;;;;5.53;0.40;;;21.00;24.00;;;;;;5072039;28;20108;-81
2022/05/18 12:40:48;;;;;;;2.17;0.50;;;21.10;23.30;;;;;;5071602;28;20063;-80
2022/05/18 12:43:44;;;;;;;4.93;0.50;;;21.20;22.40;;;;;;5071054;28;20116;-81
2022/05/18 12:46:16;;;;;;;3.33;0.40;;;21.10;23.20;;;;;;5069900;28;20032;-81
2022/05/18 12:49:05;;;;;;;3.75;0.60;;;21.20;23.20;;;;;;5071961;28;20485;-80
2022/05/18 12:51:45;;;;;;;0.90;0.35;;;21.20;21.60;;;;;;5069406;28;20113;-79
2022/05/18 12:54:12;;;;;;;2.83;0.35;;;21.00;21.50;;;;;;5071159;28;20032;-81
2022/05/18 12:56:38;;;;;;;3.70;0.80;;;20.90;22.00;;;;;;5070083;28;20185;-80
2022/05/18 12:59:11;;;;;;;7.13;0.38;;;21.00;21.30;;;;;;5069931;28;20123;-80
2022/05/18 13:01:46;;;;;;;8.45;0.50;;;21.00;22.50;;;;;;5052684;28;20035;-79
2022/05/18 13:04:14;;;;;;;5.03;0.40;;;21.10;22.10;;;;;;5053344;28;20039;-80
2022/05/18 13:06:43;;;;;;;1.10;0.30;;;21.10;22.50;;;;;;5069187;28;20497;-80
2022/05/18 13:09:21;;;;;;;2.17;0.43;;;21.20;21.90;;;;;;5069518;28;20484;-81
2022/05/18 13:11:58;;;;;;;2.75;0.40;;;21.20;23.00;;;;;;5069548;28;20032;-81
2022/05/18 13:14:36;;;;;;;2.30;0.82;;;21.30;22.10;;;;;;5069568;28;20046;-81
2022/05/18 13:17:11;;;;;;;4.78;1.55;;;21.30;23.00;;;;;;5068805;28;20451;-80
2022/05/18 13:19:42;;;;;;;2.20;0.40;;;21.30;21.50;;;;;;5069402;28;20040;-81
2022/05/18 13:22:25;;;;;;;8.63;0.50;;;21.20;22.60;;;;;;5070651;28;20094;-80
2022/05/18 13:25:00;;;;;;;0.85;0.38;;;21.20;22.50;;;;;;5070453;28;20116;-80
2022/05/18 13:27:37;;;;;;;1.60;0.40;;;21.20;21.80;;;;;;5070696;28;20035;-81
2022/05/18 13:30:09;;;;;;;3.10;0.50;;;21.20;22.10;;;;;;5070248;28;20060;-80
2022/05/18 13:32:36;;;;;;;1.58;0.40;;;21.10;21.80;;;;;;5070285;28;20028;-80
2022/05/18 13:35:13;;;;;;;2.33;0.30;;;21.10;20.80;;;;;;5070224;28;20485;-80
2022/05/18 13:37:39;;;;;;;0.50;0.30;;;21.20;21.20;;;;;;5069996;28;20020;-81
2022/05/18 13:40:05;;;;;;;1.95;0.40;;;21.20;22.00;;;;;;5069910;28;20131;-80